Main page
METAR-TAF:

METAR-TAF

Airports :

Førde Airport. Bringeland

Førde, Norway

latitude: 61-27N, longitude: 005-52E, elevation: 150 m

Current weather observation

The report was made 15 minutes ago, at 17:50 UTC
Wind 7 kt from the West, varying between West/Southwest and West/Northwest
Temperature 16°C
Humidity 59%
Pressure 1016 hPa
Visibility 10 km or more
Few clouds at a height of 4500 ft
Scattered clouds at a height of 7500 ft

METAR: ENBL 231750Z 27007KT 240V300 9999 FEW045 SCT075 16/08 Q1016

Time: 20:05 (18:05 UTC)

Forecast

The report was made 1 hour and 5 minutes ago, at 17:00 UTC
Forecast valid from 23 at 18 UTC to 23 at 22 UTC
Wind 5 kt from the Northwest
Visibility 10 km or more
Few clouds at a height of 5000 ft

TAF: ENBL 231700Z 2318/2322 31005KT 9999 FEW050

Weather observations and forecasts of more than 4000 airports (METAR and TAF reports).

The available stations are represented by yellow and red dots on the map.

Hover mouse over dot to see the name of the station.

Then click to see weather observations and forecasts.

To change the map : click on the green buttons with a black cross to zoom in, on the green button with a dash to zoom out, or on the green arrows for adjacent maps.


METAR-TAF: